Time;durP1;ratioP1;P1;durP2;ratioP2;P2;SDS_P1;SDS_P2;PMS_P1;PMS_P2;Temp;Humidity;BMP_temperature;BMP_pressure;BME280_temperature;BME280_humidity;BME280_pressure;Samples;Min_cycle;Max_cycle;Signal;HPM_P1;HPM_P2
2022/12/05 00:01:20;;;;;;;38.22;21.15;;;4.00;99.90;;;;;;5064518;28;20036;-36
2022/12/05 00:03:49;;;;;;;38.72;20.65;;;4.00;99.90;;;;;;5068763;28;20547;-37
2022/12/05 00:06:15;;;;;;;36.25;21.10;;;4.00;99.90;;;;;;5064280;28;20044;-36
2022/12/05 00:08:41;;;;;;;35.17;20.17;;;4.00;99.90;;;;;;5067804;28;20431;-37
2022/12/05 00:11:16;;;;;;;33.38;19.83;;;4.00;99.90;;;;;;5070649;28;20075;-37
2022/12/05 00:13:42;;;;;;;33.30;18.70;;;4.00;99.90;;;;;;5064148;28;20040;-37
2022/12/05 00:16:10;;;;;;;32.97;19.83;;;4.00;99.90;;;;;;5066923;28;20033;-37
2022/12/05 00:18:36;;;;;;;36.97;19.77;;;4.00;99.90;;;;;;5063245;28;20032;-36
2022/12/05 00:21:03;;;;;;;30.58;18.50;;;4.00;99.90;;;;;;5070304;28;20489;-36
2022/12/05 00:23:29;;;;;;;32.03;19.48;;;4.00;99.90;;;;;;5070373;28;20417;-36
2022/12/05 00:25:54;;;;;;;27.60;18.15;;;4.00;99.90;;;;;;5070350;28;20413;-36
2022/12/05 00:28:20;;;;;;;29.88;17.83;;;4.10;99.90;;;;;;5070120;28;20028;-37
2022/12/05 00:30:46;;;;;;;31.20;18.60;;;4.10;99.90;;;;;;5069960;28;20037;-36
2022/12/05 00:33:12;;;;;;;28.17;17.15;;;4.10;99.90;;;;;;5071760;28;20086;-36
2022/12/05 00:35:37;;;;;;;28.30;17.42;;;4.10;99.90;;;;;;5068868;28;20490;-36
2022/12/05 00:38:03;;;;;;;29.25;18.98;;;4.10;99.90;;;;;;5032036;28;20431;-36
2022/12/05 00:40:29;;;;;;;30.65;17.40;;;4.10;99.90;;;;;;5069489;28;20032;-37
2022/12/05 00:42:55;;;;;;;30.58;18.75;;;4.20;99.90;;;;;;5069831;28;20093;-37
2022/12/05 00:45:21;;;;;;;29.65;18.45;;;4.20;99.90;;;;;;5069768;28;20040;-36
2022/12/05 00:47:47;;;;;;;30.60;18.20;;;4.20;99.90;;;;;;5069558;28;20167;-37
2022/12/05 00:50:12;;;;;;;35.13;20.33;;;4.30;99.90;;;;;;5068772;28;20041;-36
2022/12/05 00:52:38;;;;;;;29.85;19.13;;;4.20;99.90;;;;;;5069592;28;20398;-37
2022/12/05 00:55:04;;;;;;;31.85;18.63;;;4.30;99.90;;;;;;5069858;28;20121;-38
2022/12/05 00:57:31;;;;;;;32.28;19.55;;;4.30;99.90;;;;;;5070052;28;20133;-37
2022/12/05 00:59:56;;;;;;;34.55;19.88;;;4.30;99.90;;;;;;5069862;28;20039;-37
2022/12/05 01:02:22;;;;;;;30.48;19.10;;;4.30;99.90;;;;;;5070115;28;20032;-38
2022/12/05 01:04:48;;;;;;;32.50;18.92;;;4.30;99.90;;;;;;5064295;28;20041;-38
2022/12/05 01:07:14;;;;;;;35.00;20.58;;;4.30;99.90;;;;;;5069806;28;20043;-38
2022/12/05 01:09:39;;;;;;;32.15;19.95;;;4.40;99.90;;;;;;5068902;28;20414;-37
2022/12/05 01:12:05;;;;;;;32.30;20.15;;;4.30;99.90;;;;;;5070089;28;20446;-38
2022/12/05 01:14:31;;;;;;;35.55;21.20;;;4.30;99.90;;;;;;5069827;28;20036;-37
2022/12/05 01:16:57;;;;;;;35.65;21.20;;;4.30;99.90;;;;;;5061368;28;20043;-37
2022/12/05 01:19:26;;;;;;;33.60;20.60;;;4.40;99.90;;;;;;5069609;28;20159;-38
2022/12/05 01:21:52;;;;;;;33.00;20.67;;;4.30;99.90;;;;;;5066773;28;20072;-37
2022/12/05 01:24:19;;;;;;;35.20;20.17;;;4.40;99.90;;;;;;5069150;28;20564;-37
2022/12/05 01:26:46;;;;;;;35.95;20.45;;;4.30;99.90;;;;;;5067307;28;20436;-38
2022/12/05 01:29:14;;;;;;;30.02;19.90;;;4.40;99.90;;;;;;5069426;28;20044;-37
2022/12/05 01:31:40;;;;;;;32.75;20.88;;;4.40;99.90;;;;;;5065862;28;20047;-38
2022/12/05 01:34:09;;;;;;;37.22;21.48;;;4.30;99.90;;;;;;5070153;28;20097;-38
2022/12/05 01:36:35;;;;;;;34.47;20.88;;;4.40;99.90;;;;;;5069398;28;20115;-37
2022/12/05 01:39:01;;;;;;;32.92;20.58;;;4.40;99.90;;;;;;5068686;28;20108;-36
2022/12/05 01:41:33;;;;;;;37.10;21.67;;;4.40;99.90;;;;;;5063751;28;20036;-37
2022/12/05 01:43:58;;;;;;;36.03;20.60;;;4.40;99.90;;;;;;5069038;28;20063;-36
2022/12/05 01:46:26;;;;;;;33.38;21.60;;;4.40;99.90;;;;;;5066999;28;20080;-36
2022/12/05 01:48:58;;;;;;;37.05;21.35;;;4.40;99.90;;;;;;5068805;28;20036;-36
2022/12/05 01:51:25;;;;;;;36.20;22.58;;;4.40;99.90;;;;;;5063181;28;20048;-36
2022/12/05 01:53:54;;;;;;;37.05;22.52;;;4.40;99.90;;;;;;5069369;28;20138;-36
2022/12/05 01:56:20;;;;;;;35.97;22.23;;;4.40;99.90;;;;;;5068772;28;20028;-36
2022/12/05 01:58:46;;;;;;;37.55;22.25;;;4.40;99.90;;;;;;5063443;28;20043;-36
2022/12/05 02:01:14;;;;;;;39.25;22.77;;;4.40;99.90;;;;;;5072088;28;20037;-36
2022/12/05 02:03:42;;;;;;;36.40;22.13;;;4.40;99.90;;;;;;5073045;28;20059;-37
2022/12/05 02:06:08;;;;;;;39.67;22.75;;;4.40;99.90;;;;;;5073208;28;20134;-37
2022/12/05 02:08:34;;;;;;;41.53;22.90;;;4.40;99.90;;;;;;5073086;28;20527;-35
2022/12/05 02:11:00;;;;;;;36.35;22.52;;;4.40;99.90;;;;;;5072309;28;20048;-35
2022/12/05 02:13:50;;;;;;;36.78;23.27;;;4.40;99.90;;;;;;5073212;28;20048;-36
2022/12/05 02:16:33;;;;;;;36.60;21.02;;;4.50;99.90;;;;;;5072735;28;20245;-36
2022/12/05 02:19:38;;;;;;;40.13;23.63;;;4.50;99.90;;;;;;5073255;28;20064;-36
2022/12/05 02:22:19;;;;;;;40.72;23.70;;;4.50;99.90;;;;;;5068464;28;20067;-36
2022/12/05 02:25:00;;;;;;;38.78;21.70;;;4.40;99.90;;;;;;5069289;28;20052;-36
2022/12/05 02:27:45;;;;;;;43.17;23.60;;;4.40;99.90;;;;;;5072714;28;20042;-37
2022/12/05 02:30:15;;;;;;;39.47;23.45;;;4.40;99.90;;;;;;5069229;28;20039;-36
2022/12/05 02:33:00;;;;;;;41.63;22.98;;;4.40;99.90;;;;;;5070507;28;20079;-36
2022/12/05 02:36:07;;;;;;;42.20;23.27;;;4.40;99.90;;;;;;5068580;28;20032;-36
2022/12/05 02:38:42;;;;;;;43.55;23.80;;;4.40;99.90;;;;;;5057507;28;20098;-36
2022/12/05 02:41:23;;;;;;;39.85;24.05;;;4.40;99.90;;;;;;5072086;28;20032;-37
2022/12/05 02:44:34;;;;;;;42.45;24.73;;;4.40;99.90;;;;;;5065942;28;20328;-37
2022/12/05 02:47:00;;;;;;;42.30;24.63;;;4.40;99.90;;;;;;4991790;28;20483;-37
2022/12/05 02:49:32;;;;;;;44.22;25.42;;;4.40;99.90;;;;;;5059309;28;20338;-36
2022/12/05 02:52:00;;;;;;;44.33;24.40;;;4.40;99.90;;;;;;5070370;28;20071;-37
2022/12/05 02:54:30;;;;;;;41.00;24.27;;;4.40;99.90;;;;;;5072188;28;20035;-36
2022/12/05 02:56:58;;;;;;;44.10;23.65;;;4.40;99.90;;;;;;5071354;28;20036;-37
2022/12/05 02:59:24;;;;;;;51.05;25.85;;;4.50;99.90;;;;;;5069585;28;20060;-36
2022/12/05 03:01:50;;;;;;;45.47;25.60;;;4.40;99.90;;;;;;5073000;28;20071;-37
2022/12/05 03:04:19;;;;;;;41.10;24.90;;;4.50;99.90;;;;;;5071584;28;20068;-38
2022/12/05 03:06:57;;;;;;;47.28;25.85;;;4.50;99.90;;;;;;5072238;28;20037;-38
2022/12/05 03:09:35;;;;;;;45.22;25.02;;;4.50;99.90;;;;;;5071087;28;20570;-38
2022/12/05 03:12:18;;;;;;;44.30;24.00;;;4.50;99.90;;;;;;5066679;28;20066;-37
2022/12/05 03:15:02;;;;;;;52.03;27.25;;;4.50;99.90;;;;;;5071226;28;20028;-37
2022/12/05 03:17:33;;;;;;;45.40;25.88;;;4.60;99.90;;;;;;5072052;28;20039;-38
2022/12/05 03:20:03;;;;;;;47.42;25.67;;;4.60;99.90;;;;;;5072202;28;20037;-38
2022/12/05 03:22:43;;;;;;;47.72;26.23;;;4.60;99.90;;;;;;5071833;28;20036;-38
2022/12/05 03:25:12;;;;;;;47.08;24.35;;;4.60;99.90;;;;;;5071954;28;20068;-37
2022/12/05 03:27:59;;;;;;;49.55;25.33;;;4.60;99.90;;;;;;5054712;28;20529;-37
2022/12/05 03:30:25;;;;;;;38.40;24.02;;;4.60;99.90;;;;;;5070902;28;20033;-37
2022/12/05 03:33:10;;;;;;;48.05;26.08;;;4.60;99.90;;;;;;5071662;28;20046;-38
2022/12/05 03:35:36;;;;;;;46.22;26.23;;;4.60;99.90;;;;;;5053744;28;20043;-38
2022/12/05 03:38:02;;;;;;;45.00;25.23;;;4.60;99.90;;;;;;5066720;28;20115;-38
2022/12/05 03:40:38;;;;;;;47.60;25.52;;;4.70;99.90;;;;;;5071256;28;20540;-38
2022/12/05 03:43:17;;;;;;;43.53;23.45;;;4.70;99.90;;;;;;5066499;28;20481;-38
2022/12/05 03:45:59;;;;;;;40.45;23.27;;;4.70;99.90;;;;;;5069681;28;20032;-37
2022/12/05 03:48:46;;;;;;;41.25;24.38;;;4.70;99.90;;;;;;5069101;28;20115;-38
2022/12/05 03:51:15;;;;;;;39.25;22.95;;;4.70;99.90;;;;;;5067487;28;20436;-37
2022/12/05 03:53:53;;;;;;;43.30;24.45;;;4.70;99.90;;;;;;5066923;28;20444;-37
2022/12/05 03:56:37;;;;;;;41.38;24.17;;;4.70;99.90;;;;;;5071132;28;20095;-38
2022/12/05 03:59:17;;;;;;;52.57;26.50;;;4.70;99.90;;;;;;5068598;28;20113;-38
2022/12/05 04:01:47;;;;;;;44.75;24.60;;;4.70;99.90;;;;;;5069548;28;20036;-37
2022/12/05 04:04:23;;;;;;;44.70;22.85;;;4.80;99.90;;;;;;5070767;28;20541;-38
2022/12/05 04:06:52;;;;;;;41.85;23.58;;;4.80;99.90;;;;;;5070553;28;20041;-37
2022/12/05 04:09:30;;;;;;;44.05;25.55;;;4.80;99.90;;;;;;5066602;28;20036;-38
2022/12/05 04:12:24;;;;;;;46.67;25.70;;;4.80;99.90;;;;;;5069849;28;20398;-38
2022/12/05 04:14:59;;;;;;;45.70;24.27;;;4.80;99.90;;;;;;5069242;28;20072;-37
2022/12/05 04:17:49;;;;;;;40.72;24.65;;;4.80;99.90;;;;;;5070456;28;20093;-38
2022/12/05 04:23:12;;;;;;;42.60;22.63;;;4.80;99.90;;;;;;5067237;28;20538;-38
2022/12/05 04:26:04;;;;;;;43.03;23.00;;;4.80;99.90;;;;;;5070528;28;20551;-38
2022/12/05 04:28:35;;;;;;;40.17;22.90;;;4.80;99.90;;;;;;5066281;28;20040;-37
2022/12/05 04:31:23;;;;;;;43.00;22.35;;;4.80;99.90;;;;;;5070150;28;20492;-38
2022/12/05 04:34:02;;;;;;;43.70;23.58;;;4.80;99.90;;;;;;5069794;28;20039;-38
2022/12/05 04:36:49;;;;;;;42.50;22.40;;;4.90;99.90;;;;;;5070394;28;20036;-38
2022/12/05 04:39:18;;;;;;;40.15;22.95;;;4.90;99.90;;;;;;5066694;28;20051;-37
2022/12/05 04:41:51;;;;;;;43.80;23.15;;;4.90;99.90;;;;;;5070407;28;20043;-37
2022/12/05 04:44:22;;;;;;;42.80;22.40;;;4.90;99.90;;;;;;5069848;28;20036;-38
2022/12/05 04:46:49;;;;;;;39.58;21.48;;;4.90;99.90;;;;;;5065770;28;20036;-38
2022/12/05 04:49:20;;;;;;;37.50;21.17;;;4.90;99.90;;;;;;5069783;28;20694;-38
2022/12/05 04:51:52;;;;;;;40.67;22.20;;;4.90;99.90;;;;;;5069503;28;20098;-38
2022/12/05 04:54:31;;;;;;;38.85;21.70;;;4.90;99.90;;;;;;5070329;28;20060;-38
2022/12/05 04:57:05;;;;;;;39.25;21.63;;;4.90;99.90;;;;;;5069723;28;20039;-37
2022/12/05 04:59:31;;;;;;;40.03;20.80;;;5.00;99.90;;;;;;5069755;28;20072;-37
2022/12/05 05:02:11;;;;;;;33.28;20.65;;;5.00;99.90;;;;;;5069274;28;20044;-37
2022/12/05 05:04:42;;;;;;;35.30;21.10;;;5.00;99.90;;;;;;5069640;28;20039;-37
2022/12/05 05:07:10;;;;;;;37.65;21.48;;;5.00;99.90;;;;;;5069219;28;20097;-37
2022/12/05 05:09:36;;;;;;;38.38;20.70;;;5.00;99.90;;;;;;5069643;28;20048;-37
2022/12/05 05:12:03;;;;;;;35.78;20.73;;;5.00;99.90;;;;;;5067202;28;20068;-44
2022/12/05 05:14:29;;;;;;;34.55;19.88;;;5.00;99.90;;;;;;5069486;28;20036;-37
2022/12/05 05:16:55;;;;;;;35.50;21.30;;;5.00;99.90;;;;;;5067855;28;20401;-37
2022/12/05 05:19:21;;;;;;;36.70;21.65;;;5.00;99.90;;;;;;5069064;28;20044;-38
2022/12/05 05:21:47;;;;;;;33.92;20.70;;;5.00;99.90;;;;;;5069802;28;20029;-37
2022/12/05 05:24:14;;;;;;;34.47;19.60;;;5.00;99.90;;;;;;5052979;28;20082;-37
2022/12/05 05:26:42;;;;;;;34.03;20.00;;;5.00;99.90;;;;;;5069642;28;20048;-38
2022/12/05 05:29:09;;;;;;;29.33;18.55;;;5.00;99.90;;;;;;5066238;28;20097;-36
2022/12/05 05:31:36;;;;;;;30.98;19.95;;;5.10;99.90;;;;;;5069255;28;20032;-36
2022/12/05 05:34:02;;;;;;;32.72;20.25;;;5.00;99.90;;;;;;5068338;28;20473;-36
2022/12/05 05:36:28;;;;;;;31.75;18.27;;;5.00;99.90;;;;;;5057299;28;20107;-36
2022/12/05 05:38:56;;;;;;;30.17;18.40;;;5.10;99.90;;;;;;5073805;28;20098;-36
2022/12/05 05:41:28;;;;;;;32.47;19.05;;;5.10;99.90;;;;;;5069196;28;20036;-36
2022/12/05 05:43:54;;;;;;;30.75;18.65;;;5.10;99.90;;;;;;5073580;28;20037;-36
2022/12/05 05:46:23;;;;;;;31.52;19.50;;;5.00;99.90;;;;;;5064766;28;20047;-36
2022/12/05 05:48:50;;;;;;;31.67;19.15;;;5.10;99.90;;;;;;5063897;28;20068;-37
2022/12/05 05:51:17;;;;;;;30.45;18.77;;;5.00;99.90;;;;;;5073648;28;20079;-37
2022/12/05 05:53:43;;;;;;;30.50;18.08;;;5.10;99.90;;;;;;5073111;28;20116;-37
2022/12/05 05:56:11;;;;;;;32.85;19.60;;;5.10;99.90;;;;;;5074140;28;20108;-36
2022/12/05 05:58:37;;;;;;;29.48;17.92;;;5.10;99.90;;;;;;5072989;28;20039;-38
2022/12/05 06:01:08;;;;;;;31.50;19.15;;;5.10;99.90;;;;;;5072335;28;20493;-36
2022/12/05 06:03:34;;;;;;;31.75;18.52;;;5.10;99.90;;;;;;5073320;28;20040;-36
2022/12/05 06:06:04;;;;;;;31.20;18.73;;;5.10;99.90;;;;;;5065389;28;20065;-36
2022/12/05 06:08:35;;;;;;;31.33;18.65;;;5.10;99.90;;;;;;5071782;28;20040;-37
2022/12/05 06:11:13;;;;;;;31.33;18.50;;;5.10;99.90;;;;;;5070115;28;20040;-38
2022/12/05 06:13:38;;;;;;;27.10;18.52;;;5.10;99.90;;;;;;5072389;28;20029;-37
2022/12/05 06:16:09;;;;;;;31.10;17.48;;;5.10;99.90;;;;;;5070789;28;20508;-38
2022/12/05 06:18:36;;;;;;;27.60;17.38;;;5.10;99.90;;;;;;5073722;28;20033;-38
2022/12/05 06:21:02;;;;;;;28.98;17.20;;;5.10;99.90;;;;;;5073353;28;20740;-38
2022/12/05 06:23:28;;;;;;;28.35;16.02;;;5.10;99.90;;;;;;5073011;28;20040;-38
2022/12/05 06:25:55;;;;;;;24.63;16.60;;;5.10;99.90;;;;;;5071607;28;20036;-38
2022/12/05 06:28:24;;;;;;;25.60;16.48;;;5.10;99.90;;;;;;5070496;28;20040;-38
2022/12/05 06:30:50;;;;;;;27.10;15.98;;;5.10;99.90;;;;;;5068299;28;20041;-38
2022/12/05 06:33:17;;;;;;;26.48;16.65;;;5.10;99.90;;;;;;5070837;28;20116;-37
2022/12/05 06:35:43;;;;;;;24.80;16.08;;;5.10;99.90;;;;;;5065469;28;20143;-38
2022/12/05 06:38:15;;;;;;;22.95;15.30;;;5.10;99.90;;;;;;5068066;28;20036;-38
2022/12/05 06:40:44;;;;;;;26.70;16.20;;;5.10;99.90;;;;;;5063814;28;20040;-36
2022/12/05 06:43:10;;;;;;;23.88;15.02;;;5.10;99.90;;;;;;5071668;28;20037;-37
2022/12/05 06:45:39;;;;;;;24.33;15.68;;;5.10;99.90;;;;;;5071170;28;20036;-37
2022/12/05 06:48:05;;;;;;;25.33;15.50;;;5.20;99.90;;;;;;5056465;28;20398;-36
2022/12/05 06:50:31;;;;;;;22.42;14.98;;;5.20;99.90;;;;;;5070945;28;20040;-37
2022/12/05 06:52:57;;;;;;;20.77;14.10;;;5.10;99.90;;;;;;5072024;28;20029;-36
2022/12/05 06:55:22;;;;;;;23.85;14.43;;;5.20;99.90;;;;;;5071320;28;20067;-37
2022/12/05 06:57:48;;;;;;;21.63;13.48;;;5.20;99.90;;;;;;5072302;28;20036;-36
2022/12/05 07:02:58;;;;;;;21.50;13.52;;;5.10;99.90;;;;;;5067818;28;20432;-36
2022/12/05 07:05:24;;;;;;;20.33;12.85;;;5.20;99.90;;;;;;5072149;28;20064;-36
2022/12/05 07:07:50;;;;;;;17.45;12.25;;;5.10;99.90;;;;;;5067850;28;20131;-36
2022/12/05 07:10:16;;;;;;;18.20;13.20;;;5.10;99.90;;;;;;5068589;28;20029;-36
2022/12/05 07:12:42;;;;;;;19.52;12.80;;;5.20;99.90;;;;;;5069895;28;20040;-37
2022/12/05 07:15:07;;;;;;;14.27;11.65;;;5.10;99.90;;;;;;5055741;28;20085;-37
2022/12/05 07:17:37;;;;;;;18.80;12.35;;;5.10;99.90;;;;;;5071566;28;20033;-38
2022/12/05 07:20:05;;;;;;;19.42;12.80;;;5.20;99.90;;;;;;5072016;28;20306;-37
2022/12/05 07:22:30;;;;;;;16.60;12.35;;;5.10;99.90;;;;;;5054246;28;20037;-36
2022/12/05 07:24:56;;;;;;;16.90;11.25;;;5.10;99.90;;;;;;5071510;28;20037;-37
2022/12/05 07:27:22;;;;;;;14.77;11.05;;;5.20;99.90;;;;;;5071635;28;20040;-37
2022/12/05 07:29:47;;;;;;;16.65;11.23;;;5.20;99.90;;;;;;5071205;28;20520;-37
2022/12/05 07:32:13;;;;;;;13.27;9.60;;;5.10;99.90;;;;;;5070776;28;20037;-37
2022/12/05 07:34:40;;;;;;;12.30;8.57;;;5.20;99.90;;;;;;5054143;28;20032;-36
2022/12/05 07:37:06;;;;;;;9.77;7.55;;;5.20;99.90;;;;;;5069881;28;20390;-36
2022/12/05 07:39:32;;;;;;;10.10;8.02;;;5.20;99.90;;;;;;5069599;28;20040;-37
2022/12/05 07:41:58;;;;;;;9.20;6.40;;;5.20;99.90;;;;;;5047450;28;20114;-36
2022/12/05 07:44:24;;;;;;;6.68;5.78;;;5.20;99.90;;;;;;5069680;28;20497;-36
2022/12/05 07:46:49;;;;;;;7.32;6.40;;;5.20;99.90;;;;;;5069275;28;20033;-37
2022/12/05 07:49:15;;;;;;;8.75;7.25;;;5.20;99.90;;;;;;5069165;28;20044;-36
2022/12/05 07:51:41;;;;;;;8.35;6.30;;;5.30;99.90;;;;;;5070405;28;20036;-37
2022/12/05 07:54:07;;;;;;;8.68;6.82;;;5.20;99.90;;;;;;5070937;28;20452;-36
2022/12/05 07:56:33;;;;;;;8.25;6.38;;;5.30;99.90;;;;;;5071317;28;20044;-36
2022/12/05 07:58:58;;;;;;;6.80;6.10;;;5.30;99.90;;;;;;5070616;28;20091;-37
2022/12/05 08:01:27;;;;;;;9.30;6.45;;;5.30;99.90;;;;;;5071100;28;20036;-37
2022/12/05 08:03:55;;;;;;;9.48;6.75;;;5.30;99.90;;;;;;5070808;28;20044;-37
2022/12/05 08:06:26;;;;;;;7.95;6.47;;;5.30;99.90;;;;;;5068095;28;20074;-38
2022/12/05 08:08:53;;;;;;;8.50;6.90;;;5.30;99.90;;;;;;5064759;28;20028;-37
2022/12/05 08:11:22;;;;;;;8.93;6.95;;;5.30;99.90;;;;;;5067259;28;20078;-37
2022/12/05 08:13:48;;;;;;;9.07;6.80;;;5.30;99.90;;;;;;5067812;28;20075;-37
2022/12/05 08:16:18;;;;;;;7.18;6.47;;;5.40;99.90;;;;;;5066707;28;20028;-37
2022/12/05 08:18:44;;;;;;;8.55;6.53;;;5.40;99.90;;;;;;5063751;28;20032;-37
2022/12/05 08:21:13;;;;;;;8.88;6.38;;;5.40;99.90;;;;;;5058901;28;20075;-36
2022/12/05 08:23:40;;;;;;;9.82;7.20;;;5.40;99.90;;;;;;5059404;28;20559;-37
2022/12/05 08:26:23;;;;;;;8.93;7.07;;;5.40;99.90;;;;;;5066597;28;20043;-37
2022/12/05 08:28:55;;;;;;;8.60;6.33;;;5.40;99.90;;;;;;5063160;28;20389;-37
2022/12/05 08:31:25;;;;;;;11.52;7.65;;;5.40;99.90;;;;;;5069136;28;20033;-37
2022/12/05 08:33:51;;;;;;;9.98;7.18;;;5.40;99.90;;;;;;5065725;28;20472;-37
2022/12/05 08:36:18;;;;;;;9.77;7.15;;;5.40;99.90;;;;;;5071182;28;20033;-37
2022/12/05 08:38:45;;;;;;;8.82;7.30;;;5.40;99.90;;;;;;5071730;28;20093;-37
2022/12/05 08:41:13;;;;;;;10.32;7.60;;;5.50;99.90;;;;;;5070107;28;20400;-37
2022/12/05 08:43:39;;;;;;;11.35;7.88;;;5.50;99.90;;;;;;5066511;28;20037;-37
2022/12/05 08:46:06;;;;;;;9.43;7.60;;;5.50;99.90;;;;;;5068738;28;20560;-37
2022/12/05 08:48:33;;;;;;;8.00;6.57;;;5.50;99.90;;;;;;5068884;28;20079;-38
2022/12/05 08:51:03;;;;;;;10.63;7.45;;;5.50;99.90;;;;;;5067257;28;20041;-37
2022/12/05 08:53:29;;;;;;;8.45;6.95;;;5.50;99.90;;;;;;5068625;28;20036;-37
2022/12/05 08:55:54;;;;;;;10.48;7.75;;;5.50;99.90;;;;;;5071206;28;20111;-37
2022/12/05 08:58:20;;;;;;;11.02;8.20;;;5.50;99.90;;;;;;5069826;28;20032;-37
2022/12/05 09:00:46;;;;;;;9.38;7.15;;;5.50;99.90;;;;;;5070177;28;20036;-37
2022/12/05 09:03:12;;;;;;;11.43;8.23;;;5.50;99.90;;;;;;5069745;28;20106;-35
2022/12/05 09:05:38;;;;;;;13.40;8.20;;;5.50;99.90;;;;;;5070762;28;20082;-38
2022/12/05 09:08:04;;;;;;;9.10;7.55;;;5.50;99.90;;;;;;5069614;28;20446;-36
2022/12/05 09:10:30;;;;;;;9.57;7.75;;;5.50;99.90;;;;;;5068974;28;20072;-37
2022/12/05 09:12:55;;;;;;;10.20;7.40;;;5.50;99.90;;;;;;5069138;28;20036;-37
2022/12/05 09:15:21;;;;;;;10.70;8.02;;;5.50;99.90;;;;;;5070013;28;20036;-37
2022/12/05 09:17:47;;;;;;;11.30;8.00;;;5.50;99.90;;;;;;5064765;28;20024;-36
2022/12/05 09:20:13;;;;;;;11.90;7.93;;;5.50;99.90;;;;;;5058282;28;20032;-36
2022/12/05 09:22:40;;;;;;;10.13;7.45;;;5.50;99.90;;;;;;5062140;28;20033;-36
2022/12/05 09:25:07;;;;;;;10.63;7.65;;;5.50;99.90;;;;;;5066115;28;20040;-36
2022/12/05 09:27:33;;;;;;;10.77;7.75;;;5.50;99.90;;;;;;5065849;28;20565;-36
2022/12/05 09:29:58;;;;;;;9.50;7.32;;;5.50;99.90;;;;;;5067648;28;20028;-37
2022/12/05 09:32:24;;;;;;;10.55;7.88;;;5.50;99.90;;;;;;5065398;28;20033;-37
2022/12/05 09:34:50;;;;;;;11.32;8.45;;;5.50;99.90;;;;;;5067800;28;20036;-38
2022/12/05 09:37:17;;;;;;;11.38;7.90;;;5.50;99.90;;;;;;5061426;28;20494;-36
2022/12/05 09:39:44;;;;;;;11.30;8.50;;;5.40;99.90;;;;;;5056958;28;20406;-38
2022/12/05 09:42:30;;;;;;;11.38;8.70;;;5.40;99.90;;;;;;5066089;28;20044;-36
2022/12/05 09:45:26;;;;;;;12.35;8.85;;;5.40;99.90;;;;;;5071178;28;20042;-36
2022/12/05 09:48:11;;;;;;;11.18;8.43;;;5.40;99.90;;;;;;5070770;28;20040;-37
2022/12/05 09:50:45;;;;;;;16.40;8.85;;;5.40;99.90;;;;;;5069953;28;20493;-36
2022/12/05 09:53:23;;;;;;;15.77;8.98;;;5.40;99.90;;;;;;5065649;28;20036;-36
2022/12/05 09:56:10;;;;;;;14.50;9.32;;;5.40;99.90;;;;;;5068287;28;20089;-36
2022/12/05 09:58:40;;;;;;;11.88;8.35;;;5.40;99.90;;;;;;5062673;28;20033;-36
2022/12/05 10:01:41;;;;;;;12.35;8.80;;;5.40;99.90;;;;;;5063909;28;20062;-35
2022/12/05 10:04:16;;;;;;;11.07;8.32;;;5.40;99.90;;;;;;5051453;28;20068;-36
2022/12/05 10:07:02;;;;;;;12.90;8.70;;;5.40;99.90;;;;;;5064562;28;20139;-36
2022/12/05 10:09:46;;;;;;;13.90;9.07;;;5.40;99.90;;;;;;5064590;28;20513;-35
2022/12/05 10:12:30;;;;;;;;;;;5.40;99.90;;;;;;5061002;28;20044;-35
2022/12/05 10:15:14;;;;;;;11.40;7.93;;;5.40;99.90;;;;;;5069023;28;20373;-35
2022/12/05 10:17:43;;;;;;;;;;;5.40;99.90;;;;;;5068995;28;20028;-34
2022/12/05 10:20:23;;;;;;;13.10;8.18;;;5.40;99.90;;;;;;5068658;28;19923;-34
2022/12/05 10:22:59;;;;;;;11.60;8.07;;;5.40;99.90;;;;;;5073361;28;20068;-35
2022/12/05 10:25:27;;;;;;;12.35;8.38;;;5.40;99.90;;;;;;5073200;28;20033;-35
2022/12/05 10:28:00;;;;;;;12.40;8.30;;;5.40;99.90;;;;;;5073006;28;20098;-34
2022/12/05 10:30:32;;;;;;;11.27;8.38;;;5.40;99.90;;;;;;5072621;28;20037;-35
2022/12/05 10:33:05;;;;;;;12.55;8.55;;;5.40;99.90;;;;;;5069577;28;20538;-35
2022/12/05 10:35:37;;;;;;;10.10;8.15;;;5.40;99.90;;;;;;5073021;28;20397;-35
2022/12/05 10:38:19;;;;;;;11.88;7.88;;;5.40;99.90;;;;;;5067879;28;20394;-35
2022/12/05 10:40:50;;;;;;;12.35;8.27;;;5.40;99.90;;;;;;5071030;28;20500;-34
2022/12/05 10:43:23;;;;;;;12.18;8.50;;;5.40;99.90;;;;;;5074553;28;20028;-35
2022/12/05 10:45:49;;;;;;;12.98;8.40;;;5.40;99.90;;;;;;5068287;28;20501;-34
2022/12/05 10:48:17;;;;;;;12.85;8.15;;;5.40;99.90;;;;;;5071220;28;20527;-35
2022/12/05 10:50:47;;;;;;;13.43;8.02;;;5.30;99.90;;;;;;5065477;28;20498;-34
2022/12/05 10:53:26;;;;;;;11.82;8.20;;;5.40;99.90;;;;;;5072533;28;20033;-35
2022/12/05 10:55:53;;;;;;;16.27;9.10;;;5.40;99.90;;;;;;5072576;28;20036;-35
2022/12/05 10:58:24;;;;;;;14.23;8.45;;;5.40;99.90;;;;;;5072676;28;20025;-35
2022/12/05 11:01:14;;;;;;;12.80;9.00;;;5.40;99.90;;;;;;5054775;28;20041;-34
2022/12/05 11:03:42;;;;;;;15.30;9.35;;;5.40;99.90;;;;;;5072717;28;20035;-34
2022/12/05 11:06:21;;;;;;;13.63;9.35;;;5.40;99.90;;;;;;5068721;28;20489;-35
2022/12/05 11:08:53;;;;;;;12.63;9.30;;;5.40;99.90;;;;;;5072028;28;20032;-35
2022/12/05 11:11:24;;;;;;;14.52;9.13;;;5.40;99.90;;;;;;5069801;28;20071;-35
2022/12/05 11:13:55;;;;;;;12.52;8.85;;;5.40;99.90;;;;;;5072644;28;20032;-35
2022/12/05 11:16:39;;;;;;;15.13;8.98;;;5.40;99.90;;;;;;5070515;28;20029;-35
2022/12/05 11:19:17;;;;;;;13.77;8.65;;;5.40;99.90;;;;;;5066866;28;20089;-35
2022/12/05 11:21:43;;;;;;;15.90;8.82;;;5.40;99.90;;;;;;5086887;28;20047;-35
2022/12/05 11:24:29;;;;;;;14.38;8.60;;;5.40;99.90;;;;;;5071894;28;20036;-35
2022/12/05 11:26:57;;;;;;;12.00;8.57;;;5.40;99.90;;;;;;5072003;28;20063;-35
2022/12/05 11:29:32;;;;;;;11.75;8.07;;;5.40;99.90;;;;;;5072328;28;20036;-35
2022/12/05 11:31:58;;;;;;;13.40;8.77;;;5.40;99.90;;;;;;5071436;28;20040;-35
2022/12/05 11:34:46;;;;;;;13.07;8.57;;;5.40;99.90;;;;;;5070373;28;20546;-35
2022/12/05 11:37:19;;;;;;;12.75;8.70;;;5.40;99.90;;;;;;5068139;28;20036;-35
2022/12/05 11:39:44;;;;;;;11.55;8.38;;;5.40;99.90;;;;;;5071124;28;20039;-35
2022/12/05 11:42:28;;;;;;;15.68;9.50;;;5.40;99.90;;;;;;5071569;28;20425;-34
2022/12/05 11:45:15;;;;;;;13.60;8.68;;;5.40;99.90;;;;;;5066165;28;20113;-34
2022/12/05 11:48:12;;;;;;;14.23;8.70;;;5.40;99.90;;;;;;5071454;28;20083;-34
2022/12/05 11:51:02;;;;;;;11.60;8.40;;;5.40;99.90;;;;;;5070670;28;20044;-34
2022/12/05 11:53:53;;;;;;;14.02;8.52;;;5.40;99.90;;;;;;5069583;28;20104;-35
2022/12/05 11:56:34;;;;;;;11.77;8.20;;;5.40;99.90;;;;;;5068656;28;20557;-35
2022/12/05 11:59:30;;;;;;;13.57;8.63;;;5.40;99.90;;;;;;5069371;28;20051;-35
2022/12/05 12:02:14;;;;;;;11.48;7.70;;;5.40;99.90;;;;;;5068832;28;20115;-35
2022/12/05 12:04:43;;;;;;;13.00;7.55;;;5.40;99.90;;;;;;5068421;28;20490;-36
2022/12/05 12:07:46;;;;;;;11.63;8.05;;;5.40;99.90;;;;;;5066513;28;20397;-34
2022/12/05 12:10:40;;;;;;;10.68;7.38;;;5.50;99.90;;;;;;5065900;28;20040;-35
2022/12/05 12:13:19;;;;;;;13.93;7.88;;;5.40;99.90;;;;;;5067090;28;20033;-35
2022/12/05 12:15:57;;;;;;;11.95;7.03;;;5.50;99.90;;;;;;5065868;28;20036;-34
2022/12/05 12:18:41;;;;;;;11.63;7.65;;;5.40;99.90;;;;;;5070365;28;20033;-34
2022/12/05 12:21:17;;;;;;;14.90;8.32;;;5.40;99.90;;;;;;5069923;28;20036;-35
2022/12/05 12:24:13;;;;;;;14.05;8.15;;;5.40;99.90;;;;;;5068796;28;20120;-34
2022/12/05 12:27:07;;;;;;;12.70;8.18;;;5.50;99.90;;;;;;5063377;28;20554;-35
2022/12/05 12:29:58;;;;;;;12.35;8.00;;;5.50;99.90;;;;;;5064738;28;20127;-35
2022/12/05 12:32:33;;;;;;;9.75;6.85;;;5.50;99.90;;;;;;5048759;28;20044;-35
2022/12/05 12:35:25;;;;;;;10.57;6.93;;;5.50;99.90;;;;;;5067594;28;20037;-35
2022/12/05 12:38:08;;;;;;;9.15;5.78;;;5.50;99.90;;;;;;5063376;28;20040;-35
2022/12/05 12:40:51;;;;;;;8.77;6.30;;;5.50;99.90;;;;;;5064512;28;20143;-35
2022/12/05 12:43:44;;;;;;;10.50;6.57;;;5.50;99.90;;;;;;5064756;28;20036;-36
2022/12/05 12:46:31;;;;;;;6.50;5.25;;;5.50;99.90;;;;;;5068092;28;20044;-35
2022/12/05 12:49:10;;;;;;;7.15;5.30;;;5.50;99.90;;;;;;5059024;28;20037;-36
2022/12/05 12:51:43;;;;;;;6.78;5.40;;;5.50;99.90;;;;;;5058309;28;20041;-36
2022/12/05 12:54:29;;;;;;;7.05;5.20;;;5.50;99.90;;;;;;5069853;28;20036;-35
2022/12/05 12:57:12;;;;;;;8.00;5.75;;;5.50;99.90;;;;;;5064381;28;20029;-35
2022/12/05 12:59:44;;;;;;;9.85;5.85;;;5.50;99.90;;;;;;5064515;28;20036;-36
2022/12/05 13:02:21;;;;;;;7.70;5.72;;;5.60;99.90;;;;;;5065494;28;20084;-36
2022/12/05 13:04:53;;;;;;;8.52;5.80;;;5.50;99.90;;;;;;5063088;28;20079;-36
2022/12/05 13:07:37;;;;;;;7.60;5.93;;;5.60;99.90;;;;;;5067738;28;20393;-35
2022/12/05 13:10:19;;;;;;;8.50;5.40;;;5.50;99.90;;;;;;5066341;28;20029;-36
2022/12/05 13:12:46;;;;;;;11.57;7.22;;;5.50;99.90;;;;;;5052724;28;20076;-36
2022/12/05 13:15:17;;;;;;;10.65;6.65;;;5.50;99.90;;;;;;5069880;28;20040;-36